Almelund, Minnesota
Current Conditions -  °F | °C
As of 11:55 PM on Sunday 21 Dec 2014 (Local Time) from KOEO Reporting Station
Overcast Overcast  
Wind Chill: 30°   Ceiling: 700
Heat Index: 36°   Visibility: 10mi
Dew Point: 36°   Wind: 7mph
Humidity: 100%   Direction: 130°SE
Pressure: 29.76"   Gusts: NA
Location:  45.49°N, 92.79°W
Report Text: KOEO 220555Z AUTO 13006KT 10SM OVC007 02/02 A2976 RMK AO2 60008 T00220022 10026 20018 400261002
Loading
Personal Weather Stations






























Interactive Weather Map New forecast layout! Learn more

10-Day Weather Forecast

Advertisements
Track Severe Weather on mobile